地図

経路データ

SID SEASON NUMBER BASIN SUBBASIN NAME ISO_TIME NATURE LAT LON WMO_WIND WMO_PRES WMO_AGENCY TRACK_TYPE DIST2LAND LANDFALL IFLAG USA_AGENCY USA_ATCF_ID USA_LAT USA_LON USA_RECORD USA_STATUS USA_WIND USA_PRES USA_SSHS USA_R34_NE USA_R34_SE USA_R34_SW USA_R34_NW USA_R50_NE USA_R50_SE USA_R50_SW USA_R50_NW USA_R64_NE USA_R64_SE USA_R64_SW USA_R64_NW USA_POCI USA_ROCI USA_RMW USA_EYE TOKYO_LAT TOKYO_LON TOKYO_GRADE TOKYO_WIND TOKYO_PRES TOKYO_R50_DIR TOKYO_R50_LONG TOKYO_R50_SHORT TOKYO_R30_DIR TOKYO_R30_LONG TOKYO_R30_SHORT TOKYO_LAND CMA_LAT CMA_LON CMA_CAT CMA_WIND CMA_PRES HKO_LAT HKO_LON HKO_CAT HKO_WIND HKO_PRES NEWDELHI_LAT NEWDELHI_LON NEWDELHI_GRADE NEWDELHI_WIND NEWDELHI_PRES NEWDELHI_CI NEWDELHI_DP NEWDELHI_POCI REUNION_LAT REUNION_LON REUNION_TYPE REUNION_WIND REUNION_PRES REUNION_TNUM REUNION_CI REUNION_RMW REUNION_R34_NE REUNION_R34_SE REUNION_R34_SW REUNION_R34_NW REUNION_R50_NE REUNION_R50_SE REUNION_R50_SW REUNION_R50_NW REUNION_R64_NE REUNION_R64_SE REUNION_R64_SW REUNION_R64_NW BOM_LAT BOM_LON BOM_TYPE BOM_WIND BOM_PRES BOM_TNUM BOM_CI BOM_RMW BOM_R34_NE BOM_R34_SE BOM_R34_SW BOM_R34_NW BOM_R50_NE BOM_R50_SE BOM_R50_SW BOM_R50_NW BOM_R64_NE BOM_R64_SE BOM_R64_SW BOM_R64_NW BOM_ROCI BOM_POCI BOM_EYE BOM_POS_METHOD BOM_PRES_METHOD NADI_LAT NADI_LON NADI_CAT NADI_WIND NADI_PRES WELLINGTON_LAT WELLINGTON_LON WELLINGTON_WIND WELLINGTON_PRES DS824_LAT DS824_LON DS824_STAGE DS824_WIND DS824_PRES TD9636_LAT TD9636_LON TD9636_STAGE TD9636_WIND TD9636_PRES TD9635_LAT TD9635_LON TD9635_WIND TD9635_PRES TD9635_ROCI NEUMANN_LAT NEUMANN_LON NEUMANN_CLASS NEUMANN_WIND NEUMANN_PRES MLC_LAT MLC_LON MLC_CLASS MLC_WIND MLC_PRES USA_GUST BOM_GUST BOM_GUST_PER REUNION_GUST REUNION_GUST_PER USA_SEAHGT USA_SEARAD_NE USA_SEARAD_SE USA_SEARAD_SW USA_SEARAD_NW STORM_SPEED STORM_DIR
1959179N18089 1959 42 NI BB NOT_NAMED 1959-06-27 18:00:00 TS 17.5000 89.3000 main 414 406 O________O____ jtwc_io IO031959 17.5000 89.3000 -1 17.5000 89.3000 TC 2 0
1959179N18089 1959 42 NI BB NOT_NAMED 1959-06-27 21:00:00 TS 17.5725 89.2775 main 406 391 P________P____ IO031959 17.5725 89.2775 -1 17.5725 89.2775 TC 2 333
1959179N18089 1959 42 NI BB NOT_NAMED 1959-06-28 00:00:00 TS 17.7000 89.2000 main 391 360 O________O____ jtwc_io IO031959 17.7000 89.2000 -1 17.7000 89.2000 TC 35 4 326
1959179N18089 1959 42 NI BB NOT_NAMED 1959-06-28 03:00:00 TS 17.9178 89.0267 main 360 322 P________PO___ IO031959 17.9200 89.0300 -1 17.9200 89.0300 TC 35 17.9000 89.0000 3 6 322
1959179N18089 1959 42 NI BB NOT_NAMED 1959-06-28 06:00:00 TS 18.2048 88.7927 main 322 283 O________OP___ jtwc_io IO031959 18.2000 88.8000 -1 18.2000 88.8000 TC 35 18.2240 88.7635 3 8 322
1959179N18089 1959 42 NI BB NOT_NAMED 1959-06-28 09:00:00 TS 18.5105 88.5449 main 276 237 P________PP___ IO031959 18.5000 88.5500 -1 18.5000 88.5500 TC 35 18.5383 88.5312 3 8 323
1959179N18089 1959 42 NI BB NOT_NAMED 1959-06-28 12:00:00 TS 18.8112 88.3028 main 237 198 O________OP___ jtwc_io IO031959 18.8000 88.3000 -1 18.8000 88.3000 TC 35 18.8335 88.3083 3 7 323
1959179N18089 1959 42 NI BB NOT_NAMED 1959-06-28 15:00:00 TS 19.0766 88.0999 main 198 168 P________PO___ IO031959 19.0649 88.0999 -1 19.0649 88.0999 TC 35 19.1000 88.1000 3 6 323
1959179N18089 1959 42 NI BB NOT_NAMED 1959-06-28 18:00:00 TS 19.3106 87.9012 main 168 137 O________OP___ jtwc_io IO031959 19.3000 87.9000 -1 19.3000 87.9000 TC 35 19.3318 87.9035 3 6 319
1959179N18089 1959 42 NI BB NOT_NAMED 1959-06-28 21:00:00 TS 19.5168 87.6911 main 137 99 P________PP___ IO031959 19.5073 87.6948 -1 19.5073 87.6948 TC 30 19.5358 87.6837 3 6 310
1959179N18089 1959 42 NI BB NOT_NAMED 1959-06-29 00:00:00 TS 19.7073 87.3990 main 99 54 O________OP___ jtwc_io IO031959 19.7000 87.4000 -1 19.7000 87.4000 TC 25 19.7220 87.3971 3 8 300
1959179N18089 1959 42 NI BB NOT_NAMED 1959-06-29 03:00:00 TS 19.9049 86.9783 main 54 0 P________PO___ IO031959 19.9073 86.9675 -1 19.9073 86.9675 TC 25 19.9000 87.0000 1 10 293
1959179N18089 1959 42 NI BB NOT_NAMED 1959-06-29 06:00:00 TS 20.0943 86.4147 main 0 0 O________OP___ jtwc_io IO031959 20.1000 86.4000 -1 20.1000 86.4000 TC 25 20.0829 86.4440 1 12 287
1959179N18089 1959 42 NI BB NOT_NAMED 1959-06-29 09:00:00 TS 20.2529 85.7456 main 0 0 P________PP___ IO031959 20.2500 85.7298 -1 20.2500 85.7298 TC 25 20.2585 85.7773 1 14 284
1959179N18089 1959 42 NI BB NOT_NAMED 1959-06-29 12:00:00 TS 20.4099 85.0156 main 0 0 O________OP___ jtwc_io IO031959 20.4000 85.0000 -1 20.4000 85.0000 TC 25 20.4296 85.0469 1 14 284
1959179N18089 1959 42 NI BB NOT_NAMED 1959-06-29 15:00:00 TS 20.5998 84.3000 main 0 0 P________PO___ IO031959 20.5997 84.3000 -1 20.5997 84.3000 TC 25 20.6000 84.3000 1 14 286
1959179N18089 1959 42 NI BB NOT_NAMED 1959-06-29 18:00:00 TS 20.7843 83.6127 main 0 0 O________OP___ jtwc_io IO031959 20.8000 83.6000 -1 20.8000 83.6000 TC 25 20.7530 83.6380 1 13 285
1959179N18089 1959 42 NI BB NOT_NAMED 1959-06-29 21:00:00 TS 20.9364 82.9264 main 0 0 P________PP___ IO031959 20.9496 82.9071 -1 20.9496 82.9071 TC 25 20.9100 82.9649 1 13 283
1959179N18089 1959 42 NI BB NOT_NAMED 1959-06-30 00:00:00 TS 21.0957 82.2198 main 0 0 O________OP___ jtwc_io IO031959 21.1000 82.2000 -1 21.1000 82.2000 TC 25 21.0870 82.2595 1 14 284
1959179N18089 1959 42 NI BB NOT_NAMED 1959-06-30 03:00:00 TS 21.2796 81.4912 main 0 0 P________PO___ IO031959 21.2693 81.4868 -1 21.2693 81.4868 TC 25 21.3000 81.5000 1 15 287
1959179N18089 1959 42 NI BB NOT_NAMED 1959-06-30 06:00:00 TS 21.5242 80.6834 main 0 0 O________OP___ jtwc_io IO031959 21.5000 80.7000 -1 21.5000 80.7000 TC 25 21.5725 80.6501 1 17 289
1959179N18089 1959 42 NI BB NOT_NAMED 1959-06-30 09:00:00 TS 21.8494 79.7589 main 0 0 P________PP___ IO031959 21.8352 79.7654 -1 21.8352 79.7654 TC 25 21.8779 79.7460 1 19 291
1959179N18089 1959 42 NI BB NOT_NAMED 1959-06-30 12:00:00 TS 22.1981 78.8062 main 0 0 O________OP___ jtwc_io IO031959 22.2000 78.8000 -1 22.2000 78.8000 TC 25 22.1942 78.8186 1 18 291
1959179N18089 1959 42 NI AS NOT_NAMED 1959-06-30 15:00:00 TS 22.5095 77.9230 main 0 0 P________PO___ IO031959 22.5143 77.9346 -1 22.5143 77.9346 TC 25 22.5000 77.9000 1 17 291
1959179N18089 1959 42 NI AS NOT_NAMED 1959-06-30 18:00:00 TS 22.7970 77.0785 main 0 0 O________OP___ jtwc_io IO031959 22.8000 77.1000 -1 22.8000 77.1000 TC 25 22.7910 77.0355 1 17 290
1959179N18089 1959 42 NI AS NOT_NAMED 1959-06-30 21:00:00 TS 23.0697 76.2283 main 0 0 P________PP___ IO031959 23.0720 76.2498 -1 23.0720 76.2498 TC 25 23.0651 76.1852 1 16 288
1959179N18089 1959 42 NI AS NOT_NAMED 1959-07-01 00:00:00 TS 23.3022 75.3807 main 0 0 O________OP___ jtwc_io IO031959 23.3000 75.4000 -1 23.3000 75.4000 TC 25 23.3067 75.3421 1 16 285
1959179N18089 1959 42 NI AS NOT_NAMED 1959-07-01 03:00:00 TS 23.4864 74.5332 main 0 0 P________PO___ IO031959 23.4795 74.5498 -1 23.4795 74.5498 TC 25 23.5000 74.5000 1 16 281
1959179N18089 1959 42 NI AS NOT_NAMED 1959-07-01 06:00:00 TS 23.6095 73.6788 main 0 0 O________OP___ jtwc_io IO031959 23.6000 73.7000 -1 23.6000 73.7000 TC 25 23.6284 73.6363 1 16 277
1959179N18089 1959 42 NI AS NOT_NAMED 1959-07-01 09:00:00 TS 23.6792 72.8299 main 0 0 P________PP___ IO031959 23.6644 72.8571 -1 23.6644 72.8571 TC 25 23.7088 72.7756 1 16 274
1959179N18089 1959 42 NI AS NOT_NAMED 1959-07-01 12:00:00 TS 23.7199 71.9757 main 0 0 O________OP___ jtwc_io IO031959 23.7000 72.0000 -1 23.7000 72.0000 TC 25 23.7598 71.9272 1 16 273
1959179N18089 1959 42 NI AS NOT_NAMED 1959-07-01 15:00:00 TS 23.7665 71.1000 main 0 0 P________PO___ IO031959 23.7497 71.0999 -1 23.7497 71.0999 TC 25 23.8000 71.1000 1 18 267
1959179N18089 1959 42 NI AS NOT_NAMED 1959-07-01 18:00:00 TS 23.6310 69.9971 main 0 0 O________OP___ jtwc_io IO031959 23.8000 70.2000 -1 23.8000 70.2000 TC 25 23.8583 70.1899 1 18 264
1959179N18089 1959 42 NI AS NOT_NAMED 1959-07-01 21:00:00 TS 23.5619 69.1376 main 0 0 P________PP___ IO031959 23.8504 69.2676 -1 23.8504 69.2676 TC 25 23.9095 69.3178 1 13 266
1959179N18089 1959 42 NI AS NOT_NAMED 1959-07-02 00:00:00 TS 23.5457 68.5471 main 0 0 O________OP___ jtwc_io IO031959 23.9000 68.5000 -1 23.9000 68.5000 TC 25 23.9555 68.5618 1 8 269
1959179N18089 1959 42 NI AS NOT_NAMED 1959-07-02 03:00:00 TS 23.5521 68.2286 main 0 0 P________PO___ IO031959 23.9493 68.0300 -1 23.9493 68.0300 TC 25 24.0000 68.0000 1 5 282
1959179N18089 1959 42 NI AS NOT_NAMED 1959-07-02 06:00:00 TS 23.6420 68.0558 main 10 10 O________OP___ jtwc_io IO031959 24.0000 67.8000 -1 24.0000 67.8000 TC 25 24.0435 67.7194 1 3 303
1959179N18089 1959 42 NI AS NOT_NAMED 1959-07-02 09:00:00 TS 23.7195 67.9530 main 11 10 P________PP___ IO031959 24.0424 67.7049 -1 24.0424 67.7049 TC 25 24.0898 67.6322 1 2 319
1959179N18089 1959 42 NI AS NOT_NAMED 1959-07-02 12:00:00 TS 23.8111 67.8966 main 10 0 O________OP___ jtwc_io IO031959 24.1000 67.7000 -1 24.1000 67.7000 TC 25 24.1413 67.6538 1 3 334
1959179N18089 1959 42 NI AS NOT_NAMED 1959-07-02 15:00:00 TS 23.9500 67.8333 main 0 0 P________PO___ IO031959 24.2000 67.6500 -1 24.2000 67.6500 TC 25 24.2000 67.7000 1 3 337
1959179N18089 1959 42 NI AS NOT_NAMED 1959-07-02 18:00:00 TS 24.0884 67.7656 main 0 0 O________OP___ jtwc_io IO031959 24.3000 67.6000 -1 24.3000 67.6000 TC 25 24.2671 67.7027 1 3 330
1959179N18089 1959 42 NI AS NOT_NAMED 1959-07-02 21:00:00 TS 24.2053 67.6774 main 0 0 P________PP___ IO031959 24.3625 67.5500 -1 24.3625 67.5500 TC 25 24.3410 67.6603 1 3 322
1959179N18089 1959 42 NI AS NOT_NAMED 1959-07-03 00:00:00 TS 24.3111 67.5783 main 0 0 O________OP___ jtwc_io IO031959 24.4000 67.5000 -1 24.4000 67.5000 TC 25 24.4194 67.5877 1 3 327
1959179N18089 1959 42 NI AS NOT_NAMED 1959-07-03 03:00:00 NR 24.4500 67.5000 main 0 __________O___ IO031959 -1 TC 24.5000 67.5000 1 3 335

IBTrACS Databaseについて

本データベースは、米国NOAAが公開する1842年以降の世界の熱帯低気圧のベストトラックデータアーカイブInternational Best Track Archive for Climate Stewardship (IBTrACS)を、ウェブで閲覧しやすい形式に変換したものです。

最終更新日:2021-12-06